createdAt,value
2023-06-22T00:00:23.875Z,6.38
2023-06-22T00:02:50.977Z,6.57
2023-06-22T00:05:18.050Z,6.22
2023-06-22T00:07:45.129Z,7.05
2023-06-22T00:10:12.228Z,7.10
2023-06-22T00:12:39.362Z,6.43
2023-06-22T00:15:06.980Z,6.88
2023-06-22T00:17:34.089Z,6.45
2023-06-22T00:20:01.339Z,6.10
2023-06-22T00:22:31.112Z,6.60
2023-06-22T00:24:58.291Z,6.95
2023-06-22T00:27:25.350Z,7.13
2023-06-22T00:29:52.809Z,7.13
2023-06-22T00:32:20.169Z,6.22
2023-06-22T00:34:47.289Z,7.65
2023-06-22T00:37:14.317Z,7.15
2023-06-22T00:39:41.538Z,6.55
2023-06-22T00:42:08.692Z,6.78
2023-06-22T00:44:37.468Z,6.97
2023-06-22T00:47:05.915Z,7.18
2023-06-22T00:49:32.973Z,7.70
2023-06-22T00:52:00.267Z,6.47
2023-06-22T00:54:27.715Z,6.70
2023-06-22T00:56:57.395Z,6.75
2023-06-22T00:59:27.203Z,7.38
2023-06-22T01:01:54.616Z,7.47
2023-06-22T01:04:25.314Z,7.07
2023-06-22T01:07:14.359Z,7.25
2023-06-22T01:10:13.902Z,7.45
2023-06-22T01:12:48.389Z,6.68
2023-06-22T01:15:22.144Z,7.28
2023-06-22T01:17:51.491Z,7.43
2023-06-22T01:20:18.917Z,7.45
2023-06-22T01:23:13.332Z,7.32
2023-06-22T01:26:04.397Z,7.22
2023-06-22T01:28:48.878Z,6.88
2023-06-22T01:31:21.092Z,6.07
2023-06-22T01:34:02.508Z,6.65
2023-06-22T01:36:30.868Z,6.85
2023-06-22T01:38:59.830Z,6.20
2023-06-22T01:41:28.753Z,6.30
2023-06-22T01:43:57.297Z,6.65
2023-06-22T01:46:24.759Z,6.47
2023-06-22T01:48:52.689Z,7.13
2023-06-22T01:51:19.914Z,6.72
2023-06-22T01:53:48.947Z,7.03
2023-06-22T01:56:19.592Z,7.25
2023-06-22T01:59:15.590Z,7.45
2023-06-22T02:02:08.299Z,7.18
2023-06-22T02:05:13.713Z,7.13
2023-06-22T02:07:51.329Z,6.78
2023-06-22T02:10:22.028Z,6.70
2023-06-22T02:12:49.894Z,7.45
2023-06-22T02:15:21.907Z,7.07
2023-06-22T02:17:49.953Z,7.40
2023-06-22T02:20:17.108Z,7.60
2023-06-22T02:22:44.356Z,6.90
2023-06-22T02:25:11.612Z,6.57
2023-06-22T02:27:41.566Z,6.45
2023-06-22T02:30:15.999Z,8.23
2023-06-22T02:32:43.797Z,7.95
2023-06-22T02:35:11.275Z,7.93
2023-06-22T02:37:43.171Z,7.78
2023-06-22T02:40:11.365Z,7.72
2023-06-22T02:42:40.466Z,8.25
2023-06-22T02:45:08.405Z,8.73
2023-06-22T02:47:35.836Z,8.80
2023-06-22T02:50:03.104Z,9.00
2023-06-22T02:52:30.198Z,8.35
2023-06-22T02:54:57.365Z,8.90
2023-06-22T02:57:24.441Z,7.25
2023-06-22T02:59:51.486Z,7.63
2023-06-22T03:02:18.972Z,8.07
2023-06-22T03:04:49.783Z,8.25
2023-06-22T03:07:18.935Z,8.95
2023-06-22T03:09:45.963Z,8.02
2023-06-22T03:12:13.101Z,9.52
2023-06-22T03:14:42.387Z,8.88
2023-06-22T03:17:09.910Z,8.57
2023-06-22T03:19:37.005Z,8.35
2023-06-22T03:22:08.113Z,8.55
2023-06-22T03:24:35.826Z,7.63
2023-06-22T03:27:06.040Z,8.13
2023-06-22T03:29:33.157Z,8.60
2023-06-22T03:32:00.171Z,9.57
2023-06-22T03:34:27.156Z,8.48
2023-06-22T03:36:54.284Z,8.68
2023-06-22T03:39:21.429Z,8.75
2023-06-22T03:41:48.456Z,9.50
2023-06-22T03:44:15.581Z,8.73
2023-06-22T03:46:42.715Z,9.18
2023-06-22T03:49:09.758Z,8.75
2023-06-22T03:51:36.924Z,8.90
2023-06-22T03:54:03.986Z,8.68
2023-06-22T03:56:31.223Z,9.38
2023-06-22T03:58:58.463Z,8.25
2023-06-22T04:01:25.502Z,8.27
2023-06-22T04:03:52.761Z,8.30
2023-06-22T04:06:19.956Z,8.85
2023-06-22T04:08:52.261Z,9.07
2023-06-22T04:11:19.826Z,8.55
2023-06-22T04:13:46.959Z,8.63
2023-06-22T04:16:18.114Z,8.60
2023-06-22T04:18:45.189Z,8.05
2023-06-22T04:21:12.189Z,7.93
2023-06-22T04:23:39.180Z,8.98
2023-06-22T04:26:06.533Z,8.52
2023-06-22T04:28:36.545Z,7.80
2023-06-22T04:31:05.898Z,8.77
2023-06-22T04:33:33.271Z,8.98
2023-06-22T04:36:04.907Z,9.70
2023-06-22T04:38:34.348Z,9.10
2023-06-22T04:41:04.701Z,8.50
2023-06-22T04:43:32.044Z,9.27
2023-06-22T04:46:04.465Z,9.13
2023-06-22T04:48:34.543Z,9.25
2023-06-22T04:51:05.196Z,8.55
2023-06-22T04:53:33.040Z,8.18
2023-06-22T04:56:00.057Z,7.90
2023-06-22T04:58:29.962Z,9.52
2023-06-22T05:00:58.190Z,9.35
2023-06-22T05:03:28.233Z,9.70
2023-06-22T05:05:55.766Z,9.52
2023-06-22T05:08:22.808Z,8.93
2023-06-22T05:11:04.282Z,8.45
2023-06-22T05:13:32.818Z,9.45
2023-06-22T05:16:03.237Z,8.48
2023-06-22T05:18:34.247Z,9.98
2023-06-22T05:21:01.602Z,9.63
2023-06-22T05:23:28.600Z,9.10
2023-06-22T05:25:58.690Z,7.95
2023-06-22T05:28:25.783Z,8.80
2023-06-22T05:30:52.815Z,8.80
2023-06-22T05:33:19.884Z,9.52
2023-06-22T05:35:46.970Z,8.30
2023-06-22T05:38:15.236Z,9.48
2023-06-22T05:40:42.266Z,9.90
2023-06-22T05:43:09.351Z,9.20
2023-06-22T05:45:36.434Z,8.57
2023-06-22T05:48:03.703Z,8.45
2023-06-22T05:50:31.043Z,8.63
2023-06-22T05:52:58.431Z,8.57
2023-06-22T05:55:25.533Z,9.02
2023-06-22T05:57:52.600Z,9.52
2023-06-22T06:00:20.454Z,8.88
2023-06-22T06:02:47.656Z,9.23
2023-06-22T06:05:15.405Z,8.70
2023-06-22T06:07:43.936Z,9.25
2023-06-22T06:10:11.751Z,8.65
2023-06-22T06:12:38.864Z,10.57
2023-06-22T06:15:07.727Z,9.95
2023-06-22T06:17:36.119Z,11.23
2023-06-22T06:20:05.979Z,10.20
2023-06-22T06:22:33.500Z,9.23
2023-06-22T06:25:00.514Z,10.90
2023-06-22T06:27:30.395Z,10.02
2023-06-22T06:29:57.910Z,10.98
2023-06-22T06:32:28.069Z,9.32
2023-06-22T06:34:55.077Z,9.93
2023-06-22T06:37:23.465Z,10.70
2023-06-22T06:39:50.530Z,9.98
2023-06-22T06:42:17.655Z,9.68
2023-06-22T06:44:44.641Z,10.98
2023-06-22T06:47:11.757Z,10.77
2023-06-22T06:49:38.761Z,10.45
2023-06-22T06:52:06.692Z,11.63
2023-06-22T06:54:33.730Z,12.05
2023-06-22T06:57:00.720Z,11.85
2023-06-22T06:59:27.826Z,12.32
2023-06-22T07:01:54.931Z,12.55
2023-06-22T07:04:22.091Z,13.13
2023-06-22T07:06:49.234Z,13.00
2023-06-22T07:09:16.261Z,12.50
2023-06-22T07:11:43.330Z,13.75
2023-06-22T07:14:13.462Z,14.73
2023-06-22T07:16:40.466Z,13.32
2023-06-22T07:19:10.341Z,15.63
2023-06-22T07:21:37.593Z,13.77
2023-06-22T07:24:07.101Z,13.90
2023-06-22T07:26:34.818Z,15.48
2023-06-22T07:29:01.939Z,14.23
2023-06-22T07:31:29.212Z,13.25
2023-06-22T07:33:56.596Z,15.52
2023-06-22T07:36:23.574Z,13.13
2023-06-22T07:38:50.551Z,14.18
2023-06-22T07:41:17.519Z,14.80
2023-06-22T07:43:44.500Z,13.90
2023-06-22T07:46:11.641Z,12.20
2023-06-22T07:48:40.280Z,13.90
2023-06-22T07:51:07.476Z,13.30
2023-06-22T07:53:34.651Z,14.18
2023-06-22T07:56:01.807Z,15.07
2023-06-22T07:58:28.852Z,13.80
2023-06-22T08:00:59.274Z,12.80
2023-06-22T08:03:33.118Z,14.38
2023-06-22T08:06:05.219Z,12.30
2023-06-22T08:08:33.106Z,13.48
2023-06-22T08:11:00.145Z,14.40
2023-06-22T08:13:27.137Z,11.65
2023-06-22T08:15:54.111Z,13.23
2023-06-22T08:18:21.433Z,14.30
2023-06-22T08:20:48.511Z,12.55
2023-06-22T08:23:15.546Z,13.25
2023-06-22T08:25:42.671Z,12.07
2023-06-22T08:28:09.889Z,11.90
2023-06-22T08:30:36.886Z,12.73
2023-06-22T08:33:04.074Z,12.23
2023-06-22T08:35:32.180Z,13.32
2023-06-22T08:38:00.931Z,11.80
2023-06-22T08:40:28.085Z,12.52
2023-06-22T08:42:55.149Z,11.60
2023-06-22T08:45:22.218Z,13.00
2023-06-22T08:47:49.453Z,12.60
2023-06-22T08:50:18.987Z,12.68
2023-06-22T08:52:46.851Z,12.57
2023-06-22T08:55:15.654Z,13.15
2023-06-22T08:57:44.104Z,10.73
2023-06-22T09:00:18.807Z,12.73
2023-06-22T09:02:46.619Z,12.48
2023-06-22T09:05:14.451Z,13.25
2023-06-22T09:07:41.787Z,13.25
2023-06-22T09:10:09.429Z,12.07
2023-06-22T09:12:38.716Z,13.68
2023-06-22T09:15:28.492Z,14.10
2023-06-22T09:17:55.891Z,12.63
2023-06-22T09:20:23.135Z,12.77
2023-06-22T09:26:11.020Z,15.73
2023-06-22T09:28:38.179Z,15.73
2023-06-22T09:31:05.390Z,15.73
2023-06-22T09:33:32.609Z,16.00
2023-06-22T09:35:59.725Z,12.77
2023-06-22T09:38:26.949Z,15.95
2023-06-22T09:40:53.996Z,14.63
2023-06-22T09:43:21.205Z,14.38
2023-06-22T09:45:48.337Z,17.83
2023-06-22T09:48:15.870Z,16.60
2023-06-22T09:50:42.974Z,17.90
2023-06-22T09:53:09.935Z,18.48
2023-06-22T09:55:37.027Z,18.27
2023-06-22T09:58:04.116Z,18.73
2023-06-22T10:00:31.659Z,18.52
2023-06-22T10:03:01.054Z,21.13
2023-06-22T10:05:28.879Z,21.77
2023-06-22T10:07:56.198Z,18.23
2023-06-22T10:10:23.230Z,20.13
2023-06-22T10:12:58.832Z,19.00
2023-06-22T10:15:32.622Z,18.70
2023-06-22T10:18:00.088Z,20.48
2023-06-22T10:20:27.597Z,22.30
2023-06-22T10:22:56.174Z,21.73
2023-06-22T10:25:24.217Z,23.00
2023-06-22T10:27:51.886Z,23.35
2023-06-22T10:30:22.520Z,24.83
2023-06-22T10:32:49.626Z,25.75
2023-06-22T10:35:17.423Z,25.30
2023-06-22T10:37:46.347Z,25.55
2023-06-22T10:40:16.238Z,28.58
2023-06-22T10:42:43.792Z,24.60
2023-06-22T10:45:11.567Z,26.23
2023-06-22T10:47:39.148Z,27.40
2023-06-22T10:50:07.164Z,26.42
2023-06-22T10:52:34.367Z,26.63
2023-06-22T10:55:01.370Z,27.23
2023-06-22T10:57:28.428Z,24.75
2023-06-22T10:59:55.732Z,24.95
2023-06-22T11:02:22.932Z,23.65
2023-06-22T11:04:50.045Z,25.23
2023-06-22T11:07:17.563Z,22.05
2023-06-22T11:09:45.315Z,22.45
2023-06-22T11:12:12.611Z,22.85
2023-06-22T11:14:40.728Z,23.48
2023-06-22T11:17:07.937Z,24.58
2023-06-22T11:19:35.203Z,23.65
2023-06-22T11:22:02.200Z,21.88
2023-06-22T11:24:29.265Z,19.00
2023-06-22T11:26:57.976Z,19.38
2023-06-22T11:29:36.756Z,15.85
2023-06-22T11:32:07.601Z,15.32
2023-06-22T11:34:34.855Z,14.45
2023-06-22T11:37:02.515Z,14.73
2023-06-22T11:39:39.186Z,15.20
2023-06-22T11:42:09.300Z,15.82
2023-06-22T11:44:39.770Z,15.52
2023-06-22T11:47:07.247Z,15.57
2023-06-22T11:49:34.614Z,15.93
2023-06-22T11:52:01.798Z,16.23
2023-06-22T11:54:28.823Z,17.92
2023-06-22T11:56:56.289Z,17.25
2023-06-22T11:59:23.535Z,18.77
2023-06-22T12:01:52.356Z,18.48
2023-06-22T12:04:22.510Z,17.92
2023-06-22T12:06:50.515Z,17.75
2023-06-22T12:09:17.568Z,18.40
2023-06-22T12:11:44.726Z,18.63
2023-06-22T12:14:11.901Z,17.90
2023-06-22T12:16:39.144Z,17.17
2023-06-22T12:19:06.600Z,16.70
2023-06-22T12:21:34.994Z,17.33
2023-06-22T12:24:02.064Z,17.73
2023-06-22T12:26:29.139Z,16.88
2023-06-22T12:28:56.205Z,15.20
2023-06-22T12:31:23.223Z,13.90
2023-06-22T12:33:50.336Z,14.65
2023-06-22T12:36:17.690Z,13.85
2023-06-22T12:38:44.676Z,13.95
2023-06-22T12:41:11.791Z,13.68
2023-06-22T12:43:38.848Z,14.07
2023-06-22T12:46:05.948Z,13.77
2023-06-22T12:48:32.958Z,12.75
2023-06-22T12:50:59.966Z,13.30
2023-06-22T12:53:28.515Z,12.10
2023-06-22T12:55:55.590Z,12.20
2023-06-22T12:58:22.570Z,11.30
2023-06-22T13:00:50.359Z,13.23
2023-06-22T13:03:17.661Z,11.40
2023-06-22T13:05:44.681Z,12.07
2023-06-22T13:08:13.226Z,10.93
2023-06-22T13:10:40.509Z,12.48
2023-06-22T13:13:07.495Z,10.23
2023-06-22T13:15:34.658Z,11.30
2023-06-22T13:18:02.072Z,11.77
2023-06-22T13:20:30.539Z,11.73
2023-06-22T13:22:58.042Z,12.60
2023-06-22T13:25:27.858Z,11.38
2023-06-22T13:27:55.334Z,12.70
2023-06-22T13:30:22.368Z,12.38
2023-06-22T13:32:52.623Z,13.18
2023-06-22T13:35:19.743Z,14.45
2023-06-22T13:37:46.740Z,14.75
2023-06-22T13:40:14.005Z,16.50
2023-06-22T13:42:41.404Z,15.27
2023-06-22T13:45:09.373Z,16.48
2023-06-22T13:47:36.501Z,16.27
2023-06-22T13:50:04.226Z,15.75
2023-06-22T13:52:31.206Z,14.77
2023-06-22T13:54:58.326Z,16.00
2023-06-22T13:57:25.336Z,14.20
2023-06-22T13:59:52.654Z,15.07
2023-06-22T14:02:19.768Z,14.75
2023-06-22T14:05:05.521Z,15.70
2023-06-22T14:07:32.880Z,16.23
2023-06-22T14:10:01.359Z,15.45
2023-06-22T14:12:28.404Z,17.10
2023-06-22T14:14:56.206Z,15.90
2023-06-22T14:17:26.518Z,16.80
2023-06-22T14:19:54.288Z,17.58
2023-06-22T14:22:22.601Z,18.13
2023-06-22T14:24:50.183Z,17.60
2023-06-22T14:27:17.420Z,16.60
2023-06-22T14:29:44.555Z,16.55
2023-06-22T14:32:11.654Z,18.50
2023-06-22T14:34:40.596Z,17.40
2023-06-22T14:37:12.390Z,17.20
2023-06-22T14:39:40.485Z,17.83
2023-06-22T14:42:07.808Z,17.23
2023-06-22T14:44:34.900Z,16.10
2023-06-22T14:47:01.913Z,16.70
2023-06-22T14:49:28.924Z,16.17
2023-06-22T14:51:55.994Z,17.08
2023-06-22T14:54:23.138Z,16.98
2023-06-22T14:56:50.118Z,16.67
2023-06-22T14:59:17.194Z,16.00
2023-06-22T15:01:45.536Z,17.85
2023-06-22T15:04:14.825Z,17.70
2023-06-22T15:06:42.000Z,19.00
2023-06-22T15:09:08.995Z,22.90
2023-06-22T15:11:36.014Z,24.08
2023-06-22T15:14:03.127Z,24.90
2023-06-22T15:16:30.114Z,24.67
2023-06-22T15:18:57.185Z,24.48
2023-06-22T15:21:24.459Z,23.15
2023-06-22T15:23:51.428Z,23.55
2023-06-22T15:26:18.567Z,23.50
2023-06-22T15:28:45.639Z,22.73
2023-06-22T15:31:12.669Z,23.65
2023-06-22T15:33:39.665Z,22.45
2023-06-22T15:36:08.087Z,23.20
2023-06-22T15:38:35.301Z,22.77
2023-06-22T15:41:02.731Z,22.98
2023-06-22T15:43:29.813Z,23.10
2023-06-22T15:45:56.964Z,24.00
2023-06-22T15:48:24.012Z,24.42
2023-06-22T15:50:51.197Z,24.70
2023-06-22T15:53:18.212Z,25.05
2023-06-22T15:55:45.793Z,25.83
2023-06-22T15:58:14.260Z,24.77
2023-06-22T16:00:41.379Z,27.30
2023-06-22T16:03:09.611Z,28.58
2023-06-22T16:05:36.738Z,29.10
2023-06-22T16:08:03.848Z,31.17
2023-06-22T16:10:31.464Z,30.60
2023-06-22T16:12:58.779Z,29.25
2023-06-22T16:15:25.739Z,31.70
2023-06-22T16:17:52.760Z,32.58
2023-06-22T16:20:22.527Z,32.85
2023-06-22T16:22:49.601Z,33.58
2023-06-22T16:25:16.693Z,32.17
2023-06-22T16:27:46.400Z,33.78
2023-06-22T16:30:13.576Z,37.05
2023-06-22T16:32:40.681Z,37.60
2023-06-22T16:35:08.593Z,39.05
2023-06-22T16:37:35.583Z,38.17
2023-06-22T16:40:02.573Z,40.78
2023-06-22T16:42:29.619Z,40.15
2023-06-22T16:44:56.677Z,39.83
2023-06-22T16:47:23.936Z,39.53
2023-06-22T16:49:51.030Z,40.88
2023-06-22T16:52:17.997Z,40.80
2023-06-22T16:54:59.918Z,41.58
2023-06-22T16:57:27.977Z,40.25
2023-06-22T16:59:55.201Z,39.35
2023-06-22T17:02:25.748Z,39.80
2023-06-22T17:04:59.915Z,40.38
2023-06-22T17:07:29.734Z,39.65
2023-06-22T17:09:58.461Z,39.63
2023-06-22T17:12:26.800Z,38.25
2023-06-22T17:14:53.992Z,40.25
2023-06-22T17:17:25.531Z,39.88
2023-06-22T17:19:52.948Z,39.30
2023-06-22T17:22:20.132Z,34.00
2023-06-22T17:24:49.053Z,36.58
2023-06-22T17:27:27.504Z,34.97
2023-06-22T17:30:11.201Z,33.88
2023-06-22T17:32:38.911Z,33.30
2023-06-22T17:35:06.800Z,33.72
2023-06-22T17:37:58.562Z,31.80
2023-06-22T17:40:27.556Z,31.40
2023-06-22T17:43:08.624Z,30.50
2023-06-22T17:45:43.798Z,30.27
2023-06-22T17:48:11.833Z,30.05
2023-06-22T17:50:43.269Z,29.42
2023-06-22T17:53:14.301Z,29.17
2023-06-22T17:55:41.588Z,29.40
2023-06-22T17:58:08.918Z,29.98
2023-06-22T18:00:39.970Z,30.58
2023-06-22T18:03:07.184Z,29.65
2023-06-22T18:05:36.206Z,25.95
2023-06-22T18:08:05.575Z,30.60
2023-06-22T18:10:36.969Z,27.95
2023-06-22T18:13:05.656Z,29.45
2023-06-22T18:15:36.128Z,28.95
2023-06-22T18:18:03.953Z,27.92
2023-06-22T18:20:33.725Z,28.70
2023-06-22T18:23:01.499Z,28.55
2023-06-22T18:25:35.061Z,28.13
2023-06-22T18:28:02.811Z,28.00
2023-06-22T18:30:30.189Z,26.73
2023-06-22T18:32:59.551Z,26.73
2023-06-22T18:35:27.082Z,28.42
2023-06-22T18:37:54.910Z,26.17
2023-06-22T18:40:22.267Z,27.25
2023-06-22T18:42:49.740Z,27.58
2023-06-22T18:45:26.385Z,26.90
2023-06-22T18:48:05.466Z,27.85
2023-06-22T18:50:43.613Z,27.15
2023-06-22T18:53:28.204Z,28.50
2023-06-22T18:56:14.236Z,25.98
2023-06-22T18:58:41.756Z,26.45
2023-06-22T19:01:28.341Z,26.95
2023-06-22T19:04:02.958Z,25.10
2023-06-22T19:06:52.102Z,24.80
2023-06-22T19:09:20.140Z,25.08
2023-06-22T19:11:48.984Z,25.90
2023-06-22T19:14:23.835Z,24.17
2023-06-22T19:17:00.504Z,25.10
2023-06-22T19:19:27.672Z,24.92
2023-06-22T19:22:01.983Z,26.08
2023-06-22T19:24:34.043Z,25.52
2023-06-22T19:27:01.376Z,24.95
2023-06-22T19:29:29.292Z,26.45
2023-06-22T19:31:58.389Z,25.52
2023-06-22T19:34:27.660Z,27.05
2023-06-22T19:36:57.617Z,27.65
2023-06-22T19:39:35.768Z,26.92
2023-06-22T19:42:02.788Z,26.17
2023-06-22T19:44:33.603Z,27.95
2023-06-22T19:47:00.715Z,28.52
2023-06-22T19:49:27.795Z,28.83
2023-06-22T19:51:54.929Z,29.65
2023-06-22T19:54:23.802Z,28.20
2023-06-22T19:56:52.222Z,29.75
2023-06-22T19:59:24.171Z,29.10
2023-06-22T20:01:51.204Z,28.15
2023-06-22T20:04:18.314Z,28.42
2023-06-22T20:07:06.395Z,30.45
2023-06-22T20:09:34.911Z,30.05
2023-06-22T20:12:02.315Z,30.50
2023-06-22T20:14:35.189Z,30.95
2023-06-22T20:17:05.573Z,31.35
2023-06-22T20:19:54.879Z,31.23
2023-06-22T20:22:21.929Z,31.60
2023-06-22T20:24:48.930Z,31.83
2023-06-22T20:27:16.014Z,32.05
2023-06-22T20:29:44.628Z,31.48
2023-06-22T20:32:14.775Z,31.67
2023-06-22T20:34:49.190Z,31.17
2023-06-22T20:37:23.285Z,32.08
2023-06-22T20:39:50.809Z,31.17
2023-06-22T20:42:18.933Z,30.90
2023-06-22T20:44:52.432Z,31.85
2023-06-22T20:47:21.697Z,32.22
2023-06-22T20:49:50.370Z,33.22
2023-06-22T20:52:18.668Z,31.38
2023-06-22T20:54:45.936Z,30.38
2023-06-22T20:57:13.014Z,32.15
2023-06-22T20:59:40.068Z,30.83
2023-06-22T21:02:10.331Z,30.73
2023-06-22T21:04:38.158Z,31.55
2023-06-22T21:07:05.936Z,30.45
2023-06-22T21:09:45.986Z,31.67
2023-06-22T21:12:18.843Z,33.08
2023-06-22T21:14:45.929Z,32.10
2023-06-22T21:17:13.148Z,31.80
2023-06-22T21:19:40.386Z,32.58
2023-06-22T21:22:07.806Z,30.90
2023-06-22T21:24:34.796Z,31.25
2023-06-22T21:27:01.999Z,33.05
2023-06-22T21:29:29.033Z,32.95
2023-06-22T21:31:56.386Z,31.58
2023-06-22T21:34:24.086Z,33.83
2023-06-22T21:36:51.119Z,31.48
2023-06-22T21:39:18.285Z,34.00
2023-06-22T21:41:45.316Z,33.53
2023-06-22T21:44:12.403Z,36.13
2023-06-22T21:46:39.396Z,38.38
2023-06-22T21:49:06.487Z,37.08
2023-06-22T21:51:35.019Z,40.35
2023-06-22T21:54:02.453Z,41.63
2023-06-22T21:56:29.540Z,42.28
2023-06-22T21:58:58.090Z,43.00
2023-06-22T22:01:25.220Z,41.58
2023-06-22T22:03:52.458Z,41.35
2023-06-22T22:06:21.592Z,43.20
2023-06-22T22:08:48.943Z,44.25
2023-06-22T22:11:16.222Z,46.50
2023-06-22T22:13:43.718Z,44.85
2023-06-22T22:16:11.701Z,45.20
2023-06-22T22:18:38.743Z,46.67
2023-06-22T22:21:05.774Z,48.22
2023-06-22T22:23:33.104Z,47.42
2023-06-22T22:26:00.226Z,46.88
2023-06-22T22:28:27.265Z,48.22
2023-06-22T22:30:54.406Z,46.63
2023-06-22T22:33:21.464Z,48.75
2023-06-22T22:35:48.604Z,49.22
2023-06-22T22:38:15.585Z,50.00
2023-06-22T22:40:42.703Z,49.85
2023-06-22T22:43:09.998Z,49.72
2023-06-22T22:45:37.202Z,50.25
2023-06-22T22:48:04.892Z,51.72
2023-06-22T22:50:32.223Z,51.20
2023-06-22T22:52:59.330Z,52.15
2023-06-22T22:55:26.416Z,52.60
2023-06-22T22:57:54.795Z,54.92
2023-06-22T23:00:21.893Z,53.80
2023-06-22T23:02:49.176Z,56.00
2023-06-22T23:05:16.485Z,55.13
2023-06-22T23:07:43.841Z,56.30
2023-06-22T23:10:13.296Z,55.33
2023-06-22T23:12:40.800Z,54.88
2023-06-22T23:15:09.196Z,57.50
2023-06-22T23:17:36.935Z,55.13
2023-06-22T23:20:04.833Z,57.35
2023-06-22T23:22:32.014Z,57.85
2023-06-22T23:24:59.167Z,57.90
2023-06-22T23:27:26.142Z,56.88
2023-06-22T23:29:53.214Z,57.92
2023-06-22T23:32:20.313Z,55.78
2023-06-22T23:34:47.402Z,55.47
2023-06-22T23:37:14.758Z,55.28
2023-06-22T23:39:44.721Z,57.85
2023-06-22T23:42:11.763Z,55.28
2023-06-22T23:44:39.140Z,54.67
2023-06-22T23:47:06.552Z,57.95
2023-06-22T23:49:33.709Z,57.08
2023-06-22T23:52:00.832Z,56.58
2023-06-22T23:54:28.242Z,55.45
2023-06-22T23:56:55.465Z,55.25
2023-06-22T23:59:22.475Z,55.03
